createdAt,value
2022-11-05T00:02:27.898Z,8.90
2022-11-05T00:05:55.131Z,8.90
2022-11-05T00:09:05.890Z,8.90
2022-11-05T00:12:30.848Z,8.80
2022-11-05T00:15:41.739Z,8.80
2022-11-05T00:18:33.769Z,8.80
2022-11-05T00:21:44.322Z,8.70
2022-11-05T00:24:55.195Z,8.60
2022-11-05T00:27:48.544Z,8.50
2022-11-05T00:30:40.672Z,8.50
2022-11-05T00:33:33.053Z,8.50
2022-11-05T00:36:25.184Z,8.50
2022-11-05T00:39:17.294Z,8.50
2022-11-05T00:42:27.825Z,8.40
2022-11-05T00:45:20.327Z,8.40
2022-11-05T00:48:31.012Z,8.40
2022-11-05T00:51:23.215Z,8.30
2022-11-05T00:54:15.442Z,8.30
2022-11-05T00:57:07.600Z,8.30
2022-11-05T00:59:59.733Z,8.30
2022-11-05T01:02:52.019Z,8.30
2022-11-05T01:05:49.866Z,8.30
2022-11-05T01:08:44.019Z,8.30
2022-11-05T01:11:37.274Z,8.20
2022-11-05T01:14:29.546Z,8.20
2022-11-05T01:17:21.718Z,8.20
2022-11-05T01:20:14.176Z,8.20
2022-11-05T01:23:11.955Z,8.20
2022-11-05T01:26:05.724Z,8.20
2022-11-05T01:29:02.131Z,8.10
2022-11-05T01:31:54.289Z,8.10
2022-11-05T01:34:46.429Z,8.10
2022-11-05T01:37:39.717Z,8.10
2022-11-05T01:40:31.825Z,8.10
2022-11-05T01:43:24.197Z,8.10
2022-11-05T01:46:27.495Z,8.00
2022-11-05T01:49:36.897Z,8.00
2022-11-05T01:52:32.192Z,8.00
2022-11-05T01:55:27.773Z,8.00
2022-11-05T01:58:24.068Z,8.00
2022-11-05T02:01:17.189Z,8.00
2022-11-05T02:04:12.170Z,8.00
2022-11-05T02:07:05.962Z,7.90
2022-11-05T02:10:06.163Z,8.00
2022-11-05T02:12:58.339Z,7.90
2022-11-05T02:16:09.240Z,7.90
2022-11-05T02:19:07.407Z,7.90
2022-11-05T02:22:21.489Z,7.90
2022-11-05T02:25:35.445Z,7.90
2022-11-05T02:28:55.338Z,7.90
2022-11-05T02:32:12.635Z,7.90
2022-11-05T02:35:25.867Z,7.90
2022-11-05T02:38:39.188Z,7.90
2022-11-05T02:41:49.140Z,7.80
2022-11-05T02:45:02.509Z,7.80
2022-11-05T02:48:05.140Z,7.90
2022-11-05T02:51:13.239Z,7.90
2022-11-05T02:54:19.705Z,8.00
2022-11-05T02:57:11.828Z,8.00
2022-11-05T03:00:28.575Z,8.10
2022-11-05T03:03:39.376Z,8.10
2022-11-05T03:06:50.257Z,8.10
2022-11-05T03:09:51.225Z,8.20
2022-11-05T03:12:51.012Z,8.10
2022-11-05T03:16:00.538Z,8.20
2022-11-05T03:19:19.990Z,8.20
2022-11-05T03:22:18.148Z,8.30
2022-11-05T03:25:17.543Z,8.30
2022-11-05T03:28:11.736Z,8.30
2022-11-05T03:31:06.008Z,8.30
2022-11-05T03:33:59.939Z,8.30
2022-11-05T03:36:54.780Z,8.10
2022-11-05T03:39:52.100Z,8.10
2022-11-05T03:42:48.805Z,8.20
2022-11-05T03:45:47.423Z,8.10
2022-11-05T03:48:44.846Z,8.10
2022-11-05T03:51:45.964Z,8.10
2022-11-05T03:54:38.512Z,8.00
2022-11-05T03:57:36.352Z,8.00
2022-11-05T04:00:28.598Z,8.00
2022-11-05T04:03:20.960Z,8.00
2022-11-05T04:06:31.798Z,8.00
2022-11-05T04:09:42.102Z,7.90
2022-11-05T04:12:52.684Z,7.90
2022-11-05T04:16:03.521Z,7.90
2022-11-05T04:18:55.518Z,7.90
2022-11-05T04:22:06.430Z,7.90
2022-11-05T04:24:58.537Z,7.90
2022-11-05T04:27:51.728Z,7.80
2022-11-05T04:30:46.929Z,7.90
2022-11-05T04:33:39.026Z,7.90
2022-11-05T04:36:31.517Z,7.90
2022-11-05T04:39:23.629Z,7.90
2022-11-05T04:42:15.818Z,7.80
2022-11-05T04:45:08.133Z,7.80
2022-11-05T04:48:04.243Z,7.80
2022-11-05T04:50:56.353Z,7.70
2022-11-05T04:53:48.448Z,7.80
2022-11-05T04:56:40.616Z,7.80
2022-11-05T04:59:32.777Z,7.80
2022-11-05T05:02:25.009Z,7.80
2022-11-05T05:05:17.559Z,7.70
2022-11-05T05:08:09.705Z,7.70
2022-11-05T05:11:07.550Z,7.70
2022-11-05T05:13:59.643Z,7.60
2022-11-05T05:16:51.835Z,7.60
2022-11-05T05:20:02.275Z,7.70
2022-11-05T05:22:55.116Z,7.80
2022-11-05T05:25:47.230Z,7.80
2022-11-05T05:28:39.349Z,7.80
2022-11-05T05:31:31.641Z,7.80
2022-11-05T05:34:23.738Z,7.80
2022-11-05T05:37:16.519Z,7.80
2022-11-05T05:40:09.424Z,7.70
2022-11-05T05:43:01.609Z,7.80
2022-11-05T05:45:53.784Z,7.70
2022-11-05T05:48:52.435Z,7.70
2022-11-05T05:51:44.570Z,7.70
2022-11-05T05:54:42.252Z,7.80
2022-11-05T05:57:35.191Z,7.80
2022-11-05T06:00:27.289Z,7.80
2022-11-05T06:03:19.699Z,7.80
2022-11-05T06:06:13.427Z,7.80
2022-11-05T06:09:05.566Z,7.80
2022-11-05T06:11:57.798Z,7.80
2022-11-05T06:14:49.909Z,7.80
2022-11-05T06:17:44.437Z,7.90
2022-11-05T06:20:36.645Z,7.90
2022-11-05T06:23:34.080Z,7.90
2022-11-05T06:26:26.160Z,7.90
2022-11-05T06:29:18.345Z,7.90
2022-11-05T06:32:12.958Z,7.90
2022-11-05T06:35:05.348Z,7.80
2022-11-05T06:38:01.607Z,7.80
2022-11-05T06:40:53.754Z,7.80
2022-11-05T06:43:45.922Z,7.90
2022-11-05T06:46:38.057Z,7.90
2022-11-05T06:49:30.219Z,7.80
2022-11-05T06:52:22.306Z,7.80
2022-11-05T06:55:14.450Z,7.80
2022-11-05T06:58:06.765Z,7.80
2022-11-05T07:01:08.609Z,7.80
2022-11-05T07:04:00.984Z,7.90
2022-11-05T07:06:53.129Z,7.90
2022-11-05T07:09:45.346Z,7.90
2022-11-05T07:12:37.479Z,7.90
2022-11-05T07:15:29.587Z,7.90
2022-11-05T07:18:21.799Z,7.90
2022-11-05T07:21:14.005Z,7.90
2022-11-05T07:24:06.769Z,8.00
2022-11-05T07:26:58.951Z,8.00
2022-11-05T07:29:51.067Z,8.10
2022-11-05T07:32:43.178Z,8.10
2022-11-05T07:35:35.445Z,8.10
2022-11-05T07:38:27.572Z,8.20
2022-11-05T07:41:20.867Z,8.20
2022-11-05T07:44:14.469Z,8.20
2022-11-05T07:47:06.548Z,8.20
2022-11-05T07:49:58.691Z,8.20
2022-11-05T07:52:51.362Z,8.30
2022-11-05T07:55:45.986Z,8.30
2022-11-05T07:58:38.266Z,8.40
2022-11-05T08:01:30.655Z,8.40
2022-11-05T08:04:22.935Z,8.50
2022-11-05T08:07:15.087Z,8.50
2022-11-05T08:10:07.798Z,8.50
2022-11-05T08:13:00.335Z,8.60
2022-11-05T08:15:52.493Z,8.70
2022-11-05T08:18:44.812Z,8.70
2022-11-05T08:21:37.032Z,8.80
2022-11-05T08:24:29.172Z,8.80
2022-11-05T08:27:21.368Z,8.80
2022-11-05T08:30:13.605Z,8.80
2022-11-05T08:33:08.759Z,8.90
2022-11-05T08:36:05.252Z,8.90
2022-11-05T08:38:57.400Z,9.00
2022-11-05T08:41:50.165Z,9.00
2022-11-05T08:44:42.406Z,9.00
2022-11-05T08:47:34.522Z,8.90
2022-11-05T08:50:27.018Z,9.00
2022-11-05T08:53:19.580Z,9.00
2022-11-05T08:56:11.673Z,9.10
2022-11-05T08:59:03.961Z,9.10
2022-11-05T09:01:56.163Z,9.20
2022-11-05T09:04:48.370Z,9.30
2022-11-05T09:07:40.502Z,9.40
2022-11-05T09:10:32.926Z,9.40
2022-11-05T09:13:25.910Z,9.50
2022-11-05T09:16:21.979Z,9.50
2022-11-05T09:19:14.193Z,9.50
2022-11-05T09:22:06.391Z,9.60
2022-11-05T09:24:58.528Z,9.70
2022-11-05T09:27:50.731Z,9.80
2022-11-05T09:30:44.636Z,10.00
2022-11-05T09:33:39.101Z,10.20
2022-11-05T09:36:31.258Z,10.30
2022-11-05T09:39:23.545Z,10.50
2022-11-05T09:42:20.186Z,10.50
2022-11-05T09:45:24.869Z,10.40
2022-11-05T09:48:21.082Z,10.40
2022-11-05T09:51:20.837Z,10.40
2022-11-05T09:54:15.968Z,10.40
2022-11-05T09:57:14.206Z,10.30
2022-11-05T10:00:08.627Z,10.20
2022-11-05T10:03:06.332Z,10.20
2022-11-05T10:06:08.556Z,10.30
2022-11-05T10:09:03.423Z,10.30
2022-11-05T10:12:02.737Z,10.50
2022-11-05T10:15:07.615Z,10.60
2022-11-05T10:18:37.310Z,10.60
2022-11-05T10:21:59.362Z,10.50
2022-11-05T10:24:48.391Z,10.50
2022-11-05T10:27:52.604Z,10.50
2022-11-05T10:30:46.765Z,10.40
2022-11-05T10:33:46.701Z,10.30
2022-11-05T10:36:38.933Z,10.50
2022-11-05T10:39:32.613Z,10.60
2022-11-05T10:42:54.397Z,10.60
2022-11-05T10:46:15.999Z,10.70
2022-11-05T10:49:55.559Z,10.80
2022-11-05T10:53:07.869Z,10.80
2022-11-05T10:56:00.236Z,10.70
2022-11-05T10:58:57.634Z,10.80
2022-11-05T11:02:02.865Z,10.90
2022-11-05T11:04:58.380Z,11.00
2022-11-05T11:08:11.322Z,11.20
2022-11-05T11:11:07.887Z,11.40
2022-11-05T11:14:23.343Z,11.50
2022-11-05T11:17:28.113Z,11.50
2022-11-05T11:20:20.518Z,11.50
2022-11-05T11:23:15.488Z,11.50
2022-11-05T11:26:10.189Z,11.60
2022-11-05T11:29:11.625Z,11.60
2022-11-05T11:32:03.786Z,11.50
2022-11-05T11:34:58.172Z,11.60
2022-11-05T11:37:54.342Z,11.60
2022-11-05T11:40:46.712Z,11.70
2022-11-05T11:43:41.274Z,11.90
2022-11-05T11:46:35.364Z,12.00
2022-11-05T11:49:50.248Z,12.00
2022-11-05T11:52:42.384Z,12.00
2022-11-05T11:55:34.560Z,11.90
2022-11-05T11:58:43.927Z,11.90
2022-11-05T12:01:57.518Z,12.00
2022-11-05T12:05:01.752Z,12.20
2022-11-05T12:07:58.029Z,12.20
2022-11-05T12:10:55.942Z,12.20
2022-11-05T12:14:05.981Z,12.20
2022-11-05T12:17:16.558Z,12.30
2022-11-05T12:20:17.064Z,12.20
2022-11-05T12:23:27.734Z,12.20
2022-11-05T12:26:42.929Z,12.20
2022-11-05T12:29:58.644Z,12.20
2022-11-05T12:33:17.136Z,12.20
2022-11-05T12:36:26.457Z,12.10
2022-11-05T12:39:24.253Z,12.10
2022-11-05T12:42:57.516Z,12.10
2022-11-05T12:46:18.016Z,12.10
2022-11-05T12:49:30.964Z,12.10
2022-11-05T12:52:55.524Z,12.10
2022-11-05T12:55:49.589Z,11.90
2022-11-05T12:58:50.144Z,11.90
2022-11-05T13:02:08.595Z,11.90
2022-11-05T13:05:06.206Z,11.90
2022-11-05T13:08:22.695Z,12.10
2022-11-05T13:11:17.747Z,12.20
2022-11-05T13:14:15.327Z,12.10
2022-11-05T13:17:24.284Z,12.00
2022-11-05T13:20:21.237Z,11.90
2022-11-05T13:23:21.077Z,11.80
2022-11-05T13:26:28.721Z,11.80
2022-11-05T13:29:31.589Z,11.80
2022-11-05T13:32:46.668Z,11.80
2022-11-05T13:35:43.331Z,11.70
2022-11-05T13:38:53.848Z,11.70
2022-11-05T13:42:15.180Z,11.60
2022-11-05T13:45:21.358Z,11.60
2022-11-05T13:48:25.401Z,11.60
2022-11-05T13:52:01.889Z,11.50
2022-11-05T13:55:25.261Z,11.50
2022-11-05T13:58:17.345Z,11.50
2022-11-05T14:01:24.786Z,11.40
2022-11-05T14:04:23.627Z,11.30
2022-11-05T14:07:25.266Z,11.40
2022-11-05T14:10:24.587Z,11.30
2022-11-05T14:13:38.404Z,11.30
2022-11-05T14:17:12.944Z,11.30
2022-11-05T14:20:05.023Z,11.20
2022-11-05T14:23:25.371Z,11.20
2022-11-05T14:26:17.629Z,11.30
2022-11-05T14:29:24.468Z,11.40
2022-11-05T14:32:25.184Z,11.40
2022-11-05T14:35:17.346Z,11.50
2022-11-05T14:38:24.839Z,11.40
2022-11-05T14:41:17.511Z,11.40
2022-11-05T14:44:11.718Z,11.40
2022-11-05T14:47:07.748Z,11.50
2022-11-05T14:50:17.721Z,11.50
2022-11-05T14:53:32.917Z,11.40
2022-11-05T14:56:25.098Z,11.30
2022-11-05T14:59:29.118Z,11.30
2022-11-05T15:02:26.593Z,11.40
2022-11-05T15:05:39.602Z,11.40
2022-11-05T15:08:55.394Z,11.30
2022-11-05T15:11:56.508Z,11.30
2022-11-05T15:15:00.239Z,11.20
2022-11-05T15:17:53.186Z,11.10
2022-11-05T15:20:55.596Z,11.10
2022-11-05T15:23:50.281Z,11.00
2022-11-05T15:27:14.449Z,11.00
2022-11-05T15:30:20.710Z,10.90
2022-11-05T15:33:22.091Z,10.90
2022-11-05T15:36:31.315Z,10.90
2022-11-05T15:39:29.761Z,10.80
2022-11-05T15:42:27.154Z,10.80
2022-11-05T15:45:20.566Z,10.70
2022-11-05T15:48:19.760Z,10.70
2022-11-05T15:51:12.593Z,10.70
2022-11-05T15:57:26.607Z,10.80
2022-11-05T16:00:39.020Z,10.80
2022-11-05T16:03:33.478Z,10.70
2022-11-05T16:06:42.064Z,10.70
2022-11-05T16:09:37.723Z,10.70
2022-11-05T16:12:36.905Z,10.60
2022-11-05T16:15:32.792Z,10.50
2022-11-05T16:18:30.675Z,10.40
2022-11-05T16:21:23.541Z,10.30
2022-11-05T16:24:29.027Z,10.30
2022-11-05T16:27:22.514Z,10.30
2022-11-05T16:30:19.429Z,10.30
2022-11-05T16:33:14.002Z,10.20
2022-11-05T16:36:07.679Z,10.20
2022-11-05T16:38:59.985Z,10.30
2022-11-05T16:41:52.159Z,10.30
2022-11-05T16:44:44.285Z,10.20
2022-11-05T16:47:36.426Z,10.20
2022-11-05T16:50:32.264Z,10.30
2022-11-05T16:53:24.422Z,10.20
2022-11-05T16:56:19.393Z,10.20
2022-11-05T16:59:13.317Z,10.20
2022-11-05T17:02:06.135Z,10.20
2022-11-05T17:04:58.371Z,10.20
2022-11-05T17:07:50.746Z,10.20
2022-11-05T17:10:42.968Z,10.10
2022-11-05T17:13:35.115Z,10.00
2022-11-05T17:16:28.143Z,9.90
2022-11-05T17:19:20.438Z,9.90
2022-11-05T17:22:12.598Z,9.80
2022-11-05T17:25:05.000Z,9.80
2022-11-05T17:27:58.041Z,9.70
2022-11-05T17:30:52.977Z,9.70
2022-11-05T17:33:45.530Z,9.70
2022-11-05T17:36:37.651Z,9.70
2022-11-05T17:39:31.868Z,9.60
2022-11-05T17:42:24.256Z,9.60
2022-11-05T17:45:16.733Z,9.60
2022-11-05T17:48:10.631Z,9.60
2022-11-05T17:51:04.002Z,9.50
2022-11-05T17:53:56.165Z,9.50
2022-11-05T17:56:48.282Z,9.40
2022-11-05T17:59:42.017Z,9.50
2022-11-05T18:02:34.233Z,9.40
2022-11-05T18:05:27.988Z,9.40
2022-11-05T18:08:20.316Z,9.40
2022-11-05T18:11:12.679Z,9.40
2022-11-05T18:14:05.362Z,9.40
2022-11-05T18:17:00.236Z,9.40
2022-11-05T18:19:52.434Z,9.40
2022-11-05T18:22:44.859Z,9.40
2022-11-05T18:25:37.086Z,9.30
2022-11-05T18:28:32.066Z,9.30
2022-11-05T18:31:24.341Z,9.30
2022-11-05T18:34:16.467Z,9.30
2022-11-05T18:37:08.636Z,9.30
2022-11-05T18:40:00.753Z,9.40
2022-11-05T18:42:52.866Z,9.50
2022-11-05T18:45:44.985Z,9.60
2022-11-05T18:48:37.652Z,9.70
2022-11-05T18:51:29.889Z,9.80
2022-11-05T18:54:22.040Z,9.90
2022-11-05T18:57:14.258Z,10.00
2022-11-05T19:00:06.965Z,10.10
2022-11-05T19:02:59.372Z,10.10
2022-11-05T19:05:51.824Z,10.10
2022-11-05T19:08:44.522Z,10.10
2022-11-05T19:11:36.676Z,10.10
2022-11-05T19:14:30.186Z,10.10
2022-11-05T19:17:22.450Z,10.10
2022-11-05T19:20:14.680Z,10.10
2022-11-05T19:23:06.812Z,10.10
2022-11-05T19:25:58.944Z,10.10
2022-11-05T19:28:51.643Z,10.10
2022-11-05T19:31:43.831Z,10.10
2022-11-05T19:34:36.068Z,10.10
2022-11-05T19:37:28.194Z,10.00
2022-11-05T19:40:21.100Z,10.00
2022-11-05T19:43:13.249Z,10.00
2022-11-05T19:46:10.370Z,9.90
2022-11-05T19:49:03.047Z,9.90
2022-11-05T19:51:55.245Z,9.80
2022-11-05T19:54:47.391Z,9.70
2022-11-05T19:57:39.545Z,9.70
2022-11-05T20:00:31.661Z,9.70
2022-11-05T20:03:23.849Z,9.70
2022-11-05T20:06:22.341Z,9.70
2022-11-05T20:09:21.537Z,9.70
2022-11-05T20:12:14.560Z,9.60
2022-11-05T20:15:07.114Z,9.60
2022-11-05T20:17:59.334Z,9.60
2022-11-05T20:21:07.872Z,9.60
2022-11-05T20:24:00.099Z,9.70
2022-11-05T20:26:54.165Z,9.70
2022-11-05T20:29:46.319Z,9.70
2022-11-05T20:32:38.445Z,9.70
2022-11-05T20:35:30.760Z,9.60
2022-11-05T20:38:22.930Z,9.70
2022-11-05T20:41:15.513Z,9.70
2022-11-05T20:44:07.755Z,9.60
2022-11-05T20:47:00.007Z,9.60
2022-11-05T20:49:52.172Z,9.70
2022-11-05T20:52:44.472Z,9.60
2022-11-05T20:55:47.702Z,9.60
2022-11-05T20:58:40.273Z,9.70
2022-11-05T21:01:34.180Z,9.70
2022-11-05T21:04:26.409Z,9.90
2022-11-05T21:07:18.494Z,9.90
2022-11-05T21:10:10.638Z,9.90
2022-11-05T21:13:02.773Z,9.90
2022-11-05T21:15:57.117Z,10.00
2022-11-05T21:18:49.278Z,10.00
2022-11-05T21:21:41.570Z,10.00
2022-11-05T21:24:34.671Z,10.00
2022-11-05T21:27:26.944Z,10.00
2022-11-05T21:30:19.149Z,9.90
2022-11-05T21:33:12.774Z,9.90
2022-11-05T21:36:11.091Z,9.90
2022-11-05T21:39:05.692Z,9.80
2022-11-05T21:42:01.824Z,9.70
2022-11-05T21:44:59.100Z,9.70
2022-11-05T21:47:52.449Z,9.70
2022-11-05T21:51:03.079Z,9.60
2022-11-05T21:54:13.850Z,9.60
2022-11-05T21:57:27.496Z,9.60
2022-11-05T22:00:20.037Z,9.60
2022-11-05T22:03:12.171Z,9.60
2022-11-05T22:06:04.400Z,9.60
2022-11-05T22:08:56.518Z,9.60
2022-11-05T22:11:49.028Z,9.40
2022-11-05T22:14:41.532Z,9.40
2022-11-05T22:17:33.696Z,9.30
2022-11-05T22:20:25.871Z,9.20
2022-11-05T22:23:18.052Z,9.20
2022-11-05T22:26:10.342Z,9.20
2022-11-05T22:29:02.448Z,9.10
2022-11-05T22:31:54.700Z,9.10
2022-11-05T22:34:48.693Z,9.10
2022-11-05T22:37:40.863Z,9.10
2022-11-05T22:40:32.962Z,9.00
2022-11-05T22:43:25.084Z,9.00
2022-11-05T22:46:20.711Z,9.00
2022-11-05T22:49:13.140Z,9.00
2022-11-05T22:52:05.860Z,9.00
2022-11-05T22:54:58.018Z,9.00
2022-11-05T22:57:50.166Z,8.90
2022-11-05T23:00:42.273Z,8.90
2022-11-05T23:03:34.757Z,9.00
2022-11-05T23:06:52.466Z,9.00
2022-11-05T23:10:04.939Z,9.00
2022-11-05T23:12:57.092Z,9.00
2022-11-05T23:16:08.029Z,9.00
2022-11-05T23:19:18.901Z,8.90
2022-11-05T23:22:32.200Z,9.00
2022-11-05T23:25:24.908Z,9.00
2022-11-05T23:28:21.271Z,9.00
2022-11-05T23:31:32.159Z,8.90
2022-11-05T23:34:24.382Z,9.00
2022-11-05T23:37:34.930Z,9.00
2022-11-05T23:40:30.028Z,8.90
2022-11-05T23:43:40.655Z,9.10
2022-11-05T23:46:51.441Z,9.10
2022-11-05T23:49:43.590Z,9.20
2022-11-05T23:52:35.717Z,9.30
2022-11-05T23:55:28.101Z,9.40
2022-11-05T23:58:20.285Z,9.40
